Current Weather

Gary/Chicago Intl

Gary, Indiana (KGYY)

Report from: Wednesday, August 17, 2022 8:45 PM CDT
Current time: Wednesday, August 17, 2022 9:34 PM CDT

Nearby weather
Weather history
Weather forecast

Temperature20.0°C (68.0°F)
Dew point18.0°C (64.4°F)
Winds 3 kts (1.5 m/s, 3.5 mph) North-Northeast (20°)
Visibility10 mi. (16.1 km)
Clouds Sky clear
Altimeter30.09 in.Hg (1019 mB)
Relative humidity88 %
Density altitude674 ft. (205 m)
Flight conditions Visual Meteorological Conditions
Raw dataKGYY 180145Z 02003KT 10SM CLR 20/18 A3009
An error has occurred. This application may no longer respond until reloaded. Reload 🗙